Time;durP1;ratioP1;P1;durP2;ratioP2;P2;SDS_P1;SDS_P2;PMS_P1;PMS_P2;Temp;Humidity;BMP_temperature;BMP_pressure;BME280_temperature;BME280_humidity;BME280_pressure;Samples;Min_cycle;Max_cycle;Signal;HPM_P1;HPM_P2
2023/12/18 00:01:25;;;;;;;18.50;7.88;;;8.40;99.90;;;;;;5105985;28;20039;-77
2023/12/18 00:03:51;;;;;;;22.40;8.13;;;8.40;99.90;;;;;;5107123;28;20040;-77
2023/12/18 00:06:16;;;;;;;17.17;8.13;;;8.40;99.90;;;;;;5082483;28;20391;-77
2023/12/18 00:08:42;;;;;;;20.73;8.73;;;8.40;99.90;;;;;;5108185;28;20047;-77
2023/12/18 00:11:08;;;;;;;18.88;8.02;;;8.40;99.90;;;;;;5096323;28;20047;-77
2023/12/18 00:13:33;;;;;;;16.85;8.50;;;8.30;99.90;;;;;;5112101;28;20808;-77
2023/12/18 00:15:59;;;;;;;24.90;8.50;;;8.30;99.90;;;;;;5088902;28;20043;-77
2023/12/18 00:18:24;;;;;;;22.17;8.90;;;8.30;99.90;;;;;;5103560;28;20122;-77
2023/12/18 00:20:52;;;;;;;16.75;7.90;;;8.30;99.90;;;;;;5083138;28;20071;-77
2023/12/18 00:23:18;;;;;;;17.90;8.00;;;8.30;99.90;;;;;;5110423;28;20535;-77
2023/12/18 00:25:43;;;;;;;19.63;8.05;;;8.30;99.90;;;;;;5109033;28;20127;-78
2023/12/18 00:28:09;;;;;;;19.58;8.38;;;8.30;99.90;;;;;;5092723;28;20054;-77
2023/12/18 00:30:35;;;;;;;21.63;8.50;;;8.30;99.90;;;;;;5083742;28;20040;-81
2023/12/18 00:33:02;;;;;;;22.30;8.48;;;8.30;99.90;;;;;;5109722;27;20051;-81
2023/12/18 00:35:28;;;;;;;19.63;7.40;;;8.40;99.90;;;;;;5109984;28;20047;-80
2023/12/18 00:37:54;;;;;;;14.10;7.00;;;8.40;99.90;;;;;;5105427;28;20547;-81
2023/12/18 00:40:20;;;;;;;21.05;7.78;;;8.40;99.90;;;;;;5102143;27;20122;-81
2023/12/18 00:42:47;;;;;;;14.57;7.10;;;8.40;99.90;;;;;;5092061;28;20043;-81
2023/12/18 00:45:15;;;;;;;13.80;6.28;;;8.40;99.90;;;;;;5086024;28;20124;-81
2023/12/18 00:47:40;;;;;;;20.63;8.40;;;8.40;99.90;;;;;;5095391;28;20078;-80
2023/12/18 00:50:09;;;;;;;15.50;6.93;;;8.40;99.90;;;;;;5091037;28;20391;-81
2023/12/18 00:52:38;;;;;;;15.07;6.90;;;8.50;99.90;;;;;;5096882;27;20051;-80
2023/12/18 00:55:05;;;;;;;14.45;6.63;;;8.50;99.90;;;;;;5112214;28;20067;-80
2023/12/18 00:57:32;;;;;;;22.35;8.07;;;8.50;99.90;;;;;;5107126;28;20043;-80
2023/12/18 00:59:58;;;;;;;;;;;8.50;99.90;;;;;;5088395;28;20035;-80
2023/12/18 01:02:23;;;;;;;14.73;6.10;;;8.50;99.90;;;;;;5090642;28;20011;-80
2023/12/18 01:04:49;;;;;;;15.68;6.90;;;8.50;99.90;;;;;;5089744;28;20043;-80
2023/12/18 01:07:14;;;;;;;22.30;6.68;;;8.50;99.90;;;;;;5109256;28;20035;-80
2023/12/18 01:09:40;;;;;;;15.45;6.53;;;8.60;99.90;;;;;;5106098;28;20082;-80
2023/12/18 01:12:06;;;;;;;15.88;6.18;;;8.50;99.90;;;;;;5108936;28;20031;-80
2023/12/18 01:14:32;;;;;;;15.95;6.18;;;8.60;99.90;;;;;;5094790;28;20040;-80
2023/12/18 01:16:58;;;;;;;21.88;6.65;;;8.50;99.90;;;;;;5111475;28;20039;-80
2023/12/18 01:19:24;;;;;;;17.35;6.35;;;8.50;99.90;;;;;;5084905;28;20395;-80
2023/12/18 01:21:50;;;;;;;13.82;5.75;;;8.50;99.90;;;;;;5102683;28;20047;-80
2023/12/18 01:24:16;;;;;;;21.60;6.88;;;8.50;99.90;;;;;;5111787;28;20051;-80
2023/12/18 01:26:41;;;;;;;17.02;6.20;;;8.50;99.90;;;;;;5053667;28;20122;-76
2023/12/18 01:29:07;;;;;;;15.75;6.07;;;8.50;99.90;;;;;;5077018;28;20122;-76
2023/12/18 01:31:33;;;;;;;16.60;7.13;;;8.50;99.90;;;;;;5089446;28;20036;-76
2023/12/18 01:33:59;;;;;;;20.30;6.22;;;8.50;99.90;;;;;;5105043;28;20495;-76
2023/12/18 01:36:25;;;;;;;17.30;6.68;;;8.50;99.90;;;;;;5071678;28;20032;-76
2023/12/18 01:38:51;;;;;;;16.20;6.22;;;8.50;99.90;;;;;;5094517;28;20116;-76
2023/12/18 01:41:20;;;;;;;11.52;5.95;;;8.50;99.90;;;;;;5114857;27;20043;-76
2023/12/18 01:43:46;;;;;;;16.45;6.82;;;8.50;99.90;;;;;;5103756;27;20410;-76
2023/12/18 01:46:19;;;;;;;;;;;8.50;99.90;;;;;;5115935;27;20039;-76
2023/12/18 01:48:45;;;;;;;15.90;6.10;;;8.50;99.90;;;;;;5106678;28;19962;-76
2023/12/18 01:51:11;;;;;;;;;;;8.50;99.90;;;;;;5084266;28;20498;-80
2023/12/18 01:53:45;;;;;;;16.50;6.18;;;8.50;99.90;;;;;;5102167;28;20002;-80
2023/12/18 01:56:14;;;;;;;16.40;6.10;;;8.50;99.90;;;;;;5104720;28;20555;-80
2023/12/18 01:58:41;;;;;;;15.68;6.40;;;8.40;99.90;;;;;;5135188;27;20487;-80
2023/12/18 02:01:08;;;;;;;16.52;6.43;;;8.40;99.90;;;;;;5091265;28;20046;-80
2023/12/18 02:03:35;;;;;;;16.25;5.60;;;8.40;99.90;;;;;;5109660;28;20544;-80
2023/12/18 02:06:03;;;;;;;13.18;5.90;;;8.40;99.90;;;;;;5100967;28;20051;-80
2023/12/18 02:08:32;;;;;;;17.90;6.25;;;8.40;99.90;;;;;;5094866;28;20101;-80
2023/12/18 02:10:59;;;;;;;13.75;5.65;;;8.40;99.90;;;;;;5095339;28;20042;-80
2023/12/18 02:13:25;;;;;;;16.10;6.03;;;8.50;99.90;;;;;;5112371;28;20050;-80
2023/12/18 02:15:50;;;;;;;19.13;5.70;;;8.50;99.90;;;;;;5112201;28;20043;-80
2023/12/18 02:18:16;;;;;;;17.33;5.97;;;8.50;99.90;;;;;;5085678;28;20079;-80
2023/12/18 02:20:42;;;;;;;15.25;5.80;;;8.50;99.90;;;;;;5075909;28;20051;-80
2023/12/18 02:23:09;;;;;;;14.57;5.38;;;8.50;99.90;;;;;;5092431;28;20145;-80
2023/12/18 02:25:35;;;;;;;14.73;5.00;;;8.50;99.90;;;;;;5109823;28;20149;-80
2023/12/18 02:28:02;;;;;;;13.52;4.72;;;8.50;99.90;;;;;;5110377;28;20180;-80
2023/12/18 02:30:28;;;;;;;16.08;5.28;;;8.50;99.90;;;;;;5110807;28;20047;-80
2023/12/18 02:32:53;;;;;;;18.98;5.28;;;8.60;99.90;;;;;;5112409;27;20043;-80
2023/12/18 02:35:19;;;;;;;15.70;5.20;;;8.60;99.90;;;;;;5118689;27;20036;-79
2023/12/18 02:37:45;;;;;;;12.48;4.88;;;8.60;99.90;;;;;;5115034;27;20122;-80
2023/12/18 02:40:11;;;;;;;14.98;5.05;;;8.60;99.90;;;;;;5123437;27;20047;-80
2023/12/18 02:42:36;;;;;;;16.02;5.43;;;8.60;99.90;;;;;;5115588;27;20043;-80
2023/12/18 02:45:02;;;;;;;14.63;4.72;;;8.50;99.90;;;;;;5118721;27;20531;-80
2023/12/18 02:47:28;;;;;;;16.92;5.13;;;8.60;99.90;;;;;;5122403;27;20031;-79
2023/12/18 02:49:54;;;;;;;14.18;5.32;;;8.60;99.90;;;;;;5126015;27;20363;-80
2023/12/18 02:52:20;;;;;;;12.73;5.25;;;8.50;99.90;;;;;;5111761;28;20027;-80
2023/12/18 02:54:46;;;;;;;13.93;4.70;;;8.60;99.90;;;;;;5090982;27;20043;-80
2023/12/18 02:57:12;;;;;;;12.90;4.75;;;8.60;99.90;;;;;;5114544;27;20057;-80
2023/12/18 02:59:37;;;;;;;16.05;5.50;;;8.60;99.90;;;;;;5116442;27;20482;-80
2023/12/18 03:02:03;;;;;;;12.48;5.07;;;8.60;99.90;;;;;;5099625;28;20047;-80
2023/12/18 03:04:29;;;;;;;12.27;5.05;;;8.60;99.90;;;;;;5119646;28;20122;-80
2023/12/18 03:06:54;;;;;;;14.20;5.22;;;8.60;99.90;;;;;;5120426;28;20517;-80
2023/12/18 03:09:20;;;;;;;11.07;4.40;;;8.60;99.90;;;;;;5081813;28;21076;-80
2023/12/18 03:11:47;;;;;;;15.90;4.75;;;8.60;99.90;;;;;;5111849;28;20055;-81
2023/12/18 03:14:12;;;;;;;16.77;5.22;;;8.60;99.90;;;;;;5116010;27;20168;-80
2023/12/18 03:16:38;;;;;;;16.08;4.53;;;8.60;99.90;;;;;;5124399;27;20125;-80
2023/12/18 03:19:04;;;;;;;11.63;5.03;;;8.60;99.90;;;;;;5120806;27;20390;-80
2023/12/18 03:21:30;;;;;;;19.45;4.97;;;8.60;99.90;;;;;;5105131;28;20039;-80
2023/12/18 03:23:56;;;;;;;15.07;5.05;;;8.60;99.90;;;;;;5119518;27;20043;-81
2023/12/18 03:26:22;;;;;;;13.35;4.55;;;8.60;99.90;;;;;;5092701;27;20035;-80
2023/12/18 03:28:47;;;;;;;17.63;5.18;;;8.60;99.90;;;;;;5115210;27;20069;-80
2023/12/18 03:31:14;;;;;;;19.42;5.65;;;8.60;99.90;;;;;;5117915;27;20399;-80
2023/12/18 03:33:40;;;;;;;;;;;8.60;99.90;;;;;;5108631;28;20535;-80
2023/12/18 03:36:06;;;;;;;14.82;4.20;;;8.60;99.90;;;;;;5120426;27;19930;-80
2023/12/18 03:38:32;;;;;;;11.82;4.40;;;8.60;99.90;;;;;;5071180;27;20085;-80
2023/12/18 03:40:59;;;;;;;14.05;4.38;;;8.60;99.90;;;;;;5103568;27;20046;-80
2023/12/18 03:43:24;;;;;;;12.52;4.30;;;8.60;99.90;;;;;;5102500;27;20050;-80
2023/12/18 03:45:50;;;;;;;13.85;5.00;;;8.70;99.90;;;;;;5099077;28;20036;-80
2023/12/18 03:48:18;;;;;;;10.93;4.18;;;8.70;99.90;;;;;;5106551;28;20061;-80
2023/12/18 03:50:43;;;;;;;17.40;4.63;;;8.70;99.90;;;;;;5110698;27;20046;-79
2023/12/18 03:53:09;;;;;;;17.33;4.35;;;8.70;99.90;;;;;;5100320;28;20035;-80
2023/12/18 03:55:35;;;;;;;14.55;5.20;;;8.70;99.90;;;;;;5121010;27;20039;-80
2023/12/18 03:58:01;;;;;;;15.65;4.65;;;8.70;99.90;;;;;;5112674;27;20047;-80
2023/12/18 04:00:27;;;;;;;14.80;4.70;;;8.80;99.90;;;;;;5096093;28;20108;-80
2023/12/18 04:02:53;;;;;;;26.08;4.65;;;8.80;99.90;;;;;;5114139;28;20028;-80
2023/12/18 04:05:19;;;;;;;19.92;6.07;;;8.80;99.90;;;;;;5114053;28;20048;-80
2023/12/18 04:07:45;;;;;;;16.33;5.10;;;8.80;99.90;;;;;;5095392;28;20039;-80
2023/12/18 04:10:11;;;;;;;21.42;5.20;;;8.80;99.90;;;;;;5112403;28;20047;-80
2023/12/18 04:12:37;;;;;;;13.10;4.35;;;8.80;99.90;;;;;;5110444;28;20035;-80
2023/12/18 04:15:04;;;;;;;18.45;5.28;;;8.80;99.90;;;;;;5112267;28;20438;-80
2023/12/18 04:17:30;;;;;;;17.27;5.25;;;8.70;99.90;;;;;;5117556;27;20379;-81
2023/12/18 04:19:56;;;;;;;16.73;4.63;;;8.80;99.90;;;;;;5092796;28;20412;-80
2023/12/18 04:22:21;;;;;;;20.85;5.60;;;8.80;99.90;;;;;;5112393;28;20031;-80
2023/12/18 04:24:47;;;;;;;18.35;5.13;;;8.70;99.90;;;;;;5078413;28;20056;-80
2023/12/18 04:27:13;;;;;;;18.77;5.38;;;8.80;99.90;;;;;;5120674;27;20040;-80
2023/12/18 04:29:38;;;;;;;15.95;4.93;;;8.70;99.90;;;;;;5114367;28;20031;-80
2023/12/18 04:32:05;;;;;;;17.05;4.90;;;8.80;99.90;;;;;;5112742;28;20482;-80
2023/12/18 04:34:30;;;;;;;;;;;8.80;99.90;;;;;;5114779;28;20471;-80
2023/12/18 04:36:56;;;;;;;15.90;4.82;;;8.80;99.90;;;;;;5097270;28;20006;-80
2023/12/18 04:39:22;;;;;;;11.55;4.40;;;8.80;99.90;;;;;;5110047;28;20131;-80
2023/12/18 04:41:47;;;;;;;17.08;5.50;;;8.80;99.90;;;;;;5114198;28;20039;-80
2023/12/18 04:44:14;;;;;;;13.73;5.55;;;8.80;99.90;;;;;;5097318;28;20040;-80
2023/12/18 04:46:40;;;;;;;15.70;5.32;;;8.80;99.90;;;;;;5097322;28;20424;-80
2023/12/18 04:49:06;;;;;;;13.75;5.15;;;8.80;99.90;;;;;;5114760;28;20054;-81
2023/12/18 04:51:32;;;;;;;18.70;5.50;;;8.80;99.90;;;;;;5094502;28;20367;-80
2023/12/18 04:53:59;;;;;;;22.13;5.57;;;8.80;99.90;;;;;;5084666;28;20101;-80
2023/12/18 04:56:25;;;;;;;13.98;5.78;;;8.80;99.90;;;;;;5112333;27;20043;-80
2023/12/18 04:58:51;;;;;;;21.45;5.75;;;8.80;99.90;;;;;;5118363;27;20047;-80
2023/12/18 05:01:17;;;;;;;16.73;5.70;;;8.80;99.90;;;;;;5115300;27;20090;-81
2023/12/18 05:03:43;;;;;;;21.05;5.70;;;8.80;99.90;;;;;;5101770;28;20530;-81
2023/12/18 05:06:22;;;;;;;15.85;5.55;;;8.80;99.90;;;;;;5095728;28;20119;-81
2023/12/18 05:08:48;;;;;;;17.10;5.68;;;8.80;99.90;;;;;;5079233;28;20042;-81
2023/12/18 05:11:17;;;;;;;17.13;5.72;;;8.90;99.90;;;;;;5095143;28;20549;-81
2023/12/18 05:13:44;;;;;;;18.00;5.55;;;8.90;99.90;;;;;;5104135;28;20047;-81
2023/12/18 05:16:09;;;;;;;17.67;5.53;;;8.90;99.90;;;;;;5113632;28;20100;-80
2023/12/18 05:18:35;;;;;;;13.48;5.63;;;8.90;99.90;;;;;;5065717;28;20040;-81
2023/12/18 05:21:02;;;;;;;16.20;5.38;;;8.90;99.90;;;;;;5108703;28;20044;-81
2023/12/18 05:23:28;;;;;;;16.48;6.03;;;8.90;99.90;;;;;;5110623;28;20071;-81
2023/12/18 05:25:54;;;;;;;17.10;6.10;;;8.90;99.90;;;;;;5079752;28;20067;-80
2023/12/18 05:28:19;;;;;;;16.98;6.35;;;8.90;99.90;;;;;;5095340;28;20035;-80
2023/12/18 05:30:45;;;;;;;14.55;6.13;;;8.90;99.90;;;;;;5106527;28;20444;-81
2023/12/18 05:33:11;;;;;;;14.13;5.32;;;8.90;99.90;;;;;;5095102;28;20036;-81
2023/12/18 05:35:37;;;;;;;21.75;5.90;;;8.90;99.90;;;;;;5096116;28;20039;-81
2023/12/18 05:38:03;;;;;;;13.63;5.50;;;8.90;99.90;;;;;;5095202;28;20513;-80
2023/12/18 05:40:28;;;;;;;17.30;7.15;;;8.90;99.90;;;;;;5110062;28;20055;-81
2023/12/18 05:42:54;;;;;;;18.60;6.38;;;8.90;99.90;;;;;;5137645;27;20144;-80
2023/12/18 05:45:20;;;;;;;18.15;5.93;;;8.90;99.90;;;;;;5096755;28;20043;-80
2023/12/18 05:47:46;;;;;;;16.00;5.57;;;8.90;99.90;;;;;;5081903;28;20046;-81
2023/12/18 05:50:12;;;;;;;14.43;5.53;;;8.90;99.90;;;;;;5114928;27;20039;-81
2023/12/18 05:52:38;;;;;;;16.48;6.03;;;8.90;99.90;;;;;;5115324;27;20351;-81
2023/12/18 05:55:04;;;;;;;13.10;5.65;;;8.90;99.90;;;;;;5112839;27;20049;-81
2023/12/18 05:57:30;;;;;;;17.38;6.53;;;8.90;99.90;;;;;;5110490;28;20043;-76
2023/12/18 05:59:56;;;;;;;17.02;6.05;;;8.90;99.90;;;;;;5110780;27;20425;-76
2023/12/18 06:02:22;;;;;;;19.23;6.15;;;8.90;99.90;;;;;;5072733;28;20044;-76
2023/12/18 06:04:47;;;;;;;18.17;6.15;;;8.90;99.90;;;;;;5089756;28;20071;-76
2023/12/18 06:07:13;;;;;;;19.80;6.20;;;8.90;99.90;;;;;;5110490;27;20137;-77
2023/12/18 06:09:39;;;;;;;19.00;5.93;;;9.00;99.90;;;;;;5087231;28;20040;-75
2023/12/18 06:12:08;;;;;;;16.88;6.43;;;9.00;99.90;;;;;;5090550;28;20038;-75
2023/12/18 06:14:34;;;;;;;18.10;6.00;;;9.00;99.90;;;;;;5089485;28;20042;-76
2023/12/18 06:16:59;;;;;;;21.55;7.18;;;9.00;99.90;;;;;;5108544;28;20429;-75
2023/12/18 06:19:25;;;;;;;15.25;6.18;;;9.00;99.90;;;;;;5087135;28;20040;-74
2023/12/18 06:21:51;;;;;;;15.93;5.82;;;9.00;99.90;;;;;;5094310;27;20426;-75
2023/12/18 06:24:16;;;;;;;15.60;6.07;;;9.00;99.90;;;;;;5107009;27;20050;-75
2023/12/18 06:26:43;;;;;;;16.67;5.65;;;9.00;99.90;;;;;;5096592;28;20093;-75
2023/12/18 06:29:09;;;;;;;11.40;5.80;;;9.00;99.90;;;;;;5090904;27;20035;-75
2023/12/18 06:31:34;;;;;;;15.20;6.32;;;9.00;99.90;;;;;;5105115;28;20397;-75
2023/12/18 06:34:00;;;;;;;14.57;6.28;;;9.00;99.90;;;;;;5108608;27;20054;-75
2023/12/18 06:36:25;;;;;;;19.27;6.07;;;9.00;99.90;;;;;;5086096;28;20047;-75
2023/12/18 06:38:51;;;;;;;20.27;6.18;;;9.00;99.90;;;;;;5104703;28;20079;-75
2023/12/18 06:41:17;;;;;;;21.13;7.35;;;9.00;99.90;;;;;;5081264;28;20045;-75
2023/12/18 06:43:44;;;;;;;18.45;5.90;;;9.00;99.90;;;;;;5097500;28;20086;-75
2023/12/18 06:46:10;;;;;;;15.00;6.35;;;9.00;99.90;;;;;;5079983;28;20047;-75
2023/12/18 06:48:36;;;;;;;20.10;6.75;;;9.00;99.90;;;;;;5086046;28;20384;-75
2023/12/18 06:51:01;;;;;;;19.13;5.90;;;9.00;99.90;;;;;;5092580;28;20044;-75
2023/12/18 06:53:27;;;;;;;16.83;6.63;;;8.90;99.90;;;;;;5106921;27;20074;-74
2023/12/18 06:55:54;;;;;;;26.15;7.60;;;8.90;99.90;;;;;;5087494;28;20035;-75
2023/12/18 06:58:20;;;;;;;20.67;7.40;;;8.90;99.90;;;;;;5110505;28;20051;-74
2023/12/18 07:00:46;;;;;;;15.95;7.03;;;8.90;99.90;;;;;;5106655;28;20395;-74
2023/12/18 07:03:11;;;;;;;17.02;7.47;;;8.90;99.90;;;;;;5109901;28;20046;-74
2023/12/18 07:05:37;;;;;;;18.85;8.35;;;8.90;99.90;;;;;;5090427;28;20035;-74
2023/12/18 07:08:03;;;;;;;19.98;8.05;;;8.90;99.90;;;;;;5107088;28;20035;-77
2023/12/18 07:10:29;;;;;;;18.60;8.15;;;8.90;99.90;;;;;;5114227;28;20043;-75
2023/12/18 07:12:54;;;;;;;16.95;7.25;;;8.90;99.90;;;;;;5091787;28;20042;-75
2023/12/18 07:15:23;;;;;;;17.63;7.18;;;8.90;99.90;;;;;;5089460;28;20399;-75
2023/12/18 07:17:49;;;;;;;25.88;8.55;;;8.90;99.90;;;;;;5107455;28;20043;-77
2023/12/18 07:20:15;;;;;;;18.95;8.63;;;8.90;99.90;;;;;;5086356;28;20039;-76
2023/12/18 07:22:41;;;;;;;20.75;8.30;;;8.80;99.90;;;;;;5107626;28;20467;-77
2023/12/18 07:25:10;;;;;;;18.85;8.15;;;8.90;99.90;;;;;;5100543;28;20075;-77
2023/12/18 07:27:39;;;;;;;28.85;9.27;;;8.90;99.90;;;;;;5122643;28;20042;-76
2023/12/18 07:30:05;;;;;;;22.38;8.65;;;8.90;99.90;;;;;;5104744;28;20044;-77
2023/12/18 07:32:32;;;;;;;18.55;7.60;;;8.90;99.90;;;;;;5102711;28;20043;-76
2023/12/18 07:35:01;;;;;;;19.75;7.93;;;8.90;99.90;;;;;;5106388;28;20082;-76
2023/12/18 07:37:28;;;;;;;18.13;7.90;;;8.90;99.90;;;;;;5105154;28;20400;-77
2023/12/18 07:39:55;;;;;;;16.45;7.80;;;8.90;99.90;;;;;;5102075;28;20066;-77
2023/12/18 07:42:21;;;;;;;15.05;7.05;;;8.90;99.90;;;;;;5088284;28;20093;-76
2023/12/18 07:44:47;;;;;;;18.85;8.20;;;8.90;99.90;;;;;;5106074;28;20044;-76
2023/12/18 07:47:12;;;;;;;22.25;8.63;;;8.90;99.90;;;;;;5106632;28;20094;-76
2023/12/18 07:49:38;;;;;;;18.15;8.32;;;8.90;99.90;;;;;;5101178;28;20046;-76
2023/12/18 07:52:04;;;;;;;14.38;7.22;;;8.90;99.90;;;;;;5088063;28;20055;-77
2023/12/18 07:54:29;;;;;;;19.55;7.90;;;8.90;99.90;;;;;;5109359;28;20035;-76
2023/12/18 07:56:55;;;;;;;20.85;7.78;;;8.90;99.90;;;;;;5107090;28;20096;-76
2023/12/18 07:59:21;;;;;;;20.63;8.20;;;8.90;99.90;;;;;;5085168;28;20046;-74
2023/12/18 08:01:46;;;;;;;18.42;7.50;;;8.90;99.90;;;;;;5090480;28;20490;-73
2023/12/18 08:04:13;;;;;;;21.48;8.57;;;8.90;99.90;;;;;;5102148;28;20399;-77
2023/12/18 08:06:39;;;;;;;24.27;8.43;;;9.00;99.90;;;;;;5103299;28;20119;-76
2023/12/18 08:09:05;;;;;;;20.70;8.70;;;8.90;99.90;;;;;;5107364;27;20568;-80
2023/12/18 08:11:30;;;;;;;18.80;7.80;;;9.00;99.90;;;;;;5103304;27;20080;-80
2023/12/18 08:13:56;;;;;;;17.88;7.88;;;9.00;99.90;;;;;;5109332;27;20041;-80
2023/12/18 08:16:25;;;;;;;26.02;8.38;;;9.00;99.90;;;;;;5109638;27;20465;-79
2023/12/18 08:18:51;;;;;;;23.13;7.93;;;9.00;99.90;;;;;;5106559;27;20039;-77
2023/12/18 08:21:16;;;;;;;17.88;7.60;;;9.00;99.90;;;;;;5079307;28;20090;-76
2023/12/18 08:23:44;;;;;;;22.80;8.13;;;9.00;99.90;;;;;;5107076;28;20091;-76
2023/12/18 08:26:12;;;;;;;18.00;8.43;;;9.00;99.90;;;;;;5109442;28;20050;-76
2023/12/18 08:28:42;;;;;;;24.58;9.07;;;9.00;99.90;;;;;;5084171;28;20097;-76
2023/12/18 08:31:07;;;;;;;19.13;8.27;;;9.00;99.90;;;;;;5090411;28;20142;-76
2023/12/18 08:33:33;;;;;;;23.38;9.32;;;9.00;99.90;;;;;;5104927;28;20554;-76
2023/12/18 08:35:59;;;;;;;18.75;8.50;;;9.00;99.90;;;;;;5105360;28;20068;-77
2023/12/18 08:38:25;;;;;;;20.65;9.07;;;9.00;99.90;;;;;;5093218;28;20048;-76
2023/12/18 08:40:50;;;;;;;23.90;9.50;;;9.00;99.90;;;;;;5093900;28;20040;-76
2023/12/18 08:43:16;;;;;;;21.13;8.65;;;9.10;99.90;;;;;;5106347;28;20075;-76
2023/12/18 08:45:42;;;;;;;22.60;8.85;;;9.10;99.90;;;;;;5106455;28;20031;-77
2023/12/18 08:48:07;;;;;;;27.25;9.77;;;9.10;99.90;;;;;;5088842;28;20456;-76
2023/12/18 08:50:33;;;;;;;21.38;8.98;;;9.10;99.90;;;;;;5094078;28;20036;-76
2023/12/18 08:52:59;;;;;;;25.27;8.60;;;9.10;99.90;;;;;;5095262;28;20039;-76
2023/12/18 08:55:25;;;;;;;25.52;8.35;;;9.10;99.90;;;;;;5095191;28;20044;-76
2023/12/18 08:57:51;;;;;;;23.35;8.75;;;9.10;99.90;;;;;;5110273;28;20114;-80
2023/12/18 09:00:17;;;;;;;20.90;9.45;;;9.10;99.90;;;;;;5087906;28;20038;-78
2023/12/18 09:02:43;;;;;;;25.95;9.63;;;9.20;99.90;;;;;;5105699;28;20062;-80
2023/12/18 09:05:09;;;;;;;25.85;9.57;;;9.20;99.90;;;;;;5105676;28;20043;-80
2023/12/18 09:07:34;;;;;;;24.38;8.95;;;9.20;99.90;;;;;;5107768;28;20040;-80
2023/12/18 09:10:00;;;;;;;19.40;8.90;;;9.20;99.90;;;;;;5106890;28;20471;-80
2023/12/18 09:12:26;;;;;;;25.00;9.95;;;9.20;99.90;;;;;;5090701;28;20390;-80
2023/12/18 09:14:51;;;;;;;28.60;8.77;;;9.20;99.90;;;;;;5086115;28;20040;-80
2023/12/18 09:17:17;;;;;;;23.40;7.82;;;9.30;99.90;;;;;;5085288;28;20362;-80
2023/12/18 09:19:43;;;;;;;23.25;7.68;;;9.30;99.90;;;;;;5082822;28;20047;-80
2023/12/18 09:22:08;;;;;;;24.48;7.53;;;9.30;99.90;;;;;;5103423;28;20043;-80
2023/12/18 09:24:34;;;;;;;20.95;8.18;;;9.40;99.90;;;;;;5105620;28;20043;-79
2023/12/18 09:27:00;;;;;;;25.80;8.40;;;9.40;99.90;;;;;;5104427;28;20483;-79
2023/12/18 09:29:26;;;;;;;18.70;7.32;;;9.40;99.90;;;;;;5071640;28;20109;-80
2023/12/18 09:31:52;;;;;;;27.75;8.48;;;9.40;99.90;;;;;;5107312;28;20403;-79
2023/12/18 09:34:18;;;;;;;17.95;6.93;;;9.40;99.90;;;;;;5090428;28;20107;-79
2023/12/18 09:36:44;;;;;;;15.70;7.00;;;9.40;99.90;;;;;;5078679;28;20052;-79
2023/12/18 09:39:10;;;;;;;20.88;8.52;;;9.40;99.90;;;;;;5102513;28;20060;-79
2023/12/18 09:41:36;;;;;;;21.20;7.90;;;9.40;99.90;;;;;;5105218;28;20050;-80
2023/12/18 09:44:02;;;;;;;29.13;8.88;;;9.30;99.90;;;;;;5097917;28;20086;-80
2023/12/18 09:46:28;;;;;;;22.90;8.30;;;9.30;99.90;;;;;;5108139;28;20146;-79
2023/12/18 09:48:54;;;;;;;26.48;9.18;;;9.30;99.90;;;;;;5087720;28;20040;-80
2023/12/18 09:51:25;;;;;;;23.02;9.50;;;9.30;99.90;;;;;;5090402;28;20100;-82
2023/12/18 09:53:51;;;;;;;29.65;10.35;;;9.30;99.90;;;;;;5087454;28;20497;-80
2023/12/18 09:56:22;;;;;;;18.58;9.25;;;9.30;99.90;;;;;;5088978;28;20490;-81
2023/12/18 09:58:49;;;;;;;22.40;10.55;;;9.30;99.90;;;;;;5084190;28;20039;-81
2023/12/18 10:01:15;;;;;;;22.48;9.20;;;9.30;99.90;;;;;;5101428;28;20517;-80
2023/12/18 10:03:41;;;;;;;20.38;8.60;;;9.30;99.90;;;;;;5108932;28;20044;-81
2023/12/18 10:06:08;;;;;;;22.33;9.30;;;9.30;99.90;;;;;;5109748;28;20100;-81
2023/12/18 10:08:35;;;;;;;22.55;9.35;;;9.30;99.90;;;;;;5110356;28;20039;-81
2023/12/18 10:11:01;;;;;;;19.75;9.52;;;9.30;99.90;;;;;;5109443;28;20043;-81
2023/12/18 10:13:27;;;;;;;18.60;8.95;;;9.30;99.90;;;;;;5110813;28;20047;-81
2023/12/18 10:15:56;;;;;;;17.02;9.60;;;9.30;99.90;;;;;;5109849;28;20100;-81
2023/12/18 10:18:23;;;;;;;19.10;10.35;;;9.30;99.90;;;;;;5110735;28;20600;-82
2023/12/18 10:20:50;;;;;;;24.58;11.05;;;9.30;99.90;;;;;;5121366;27;20050;-81
2023/12/18 10:23:16;;;;;;;23.80;10.90;;;9.30;99.90;;;;;;5088493;28;20126;-80
2023/12/18 10:25:43;;;;;;;21.48;10.05;;;9.30;99.90;;;;;;5108887;28;20032;-81
2023/12/18 10:28:09;;;;;;;19.27;10.45;;;9.30;99.90;;;;;;5089407;28;20092;-82
2023/12/18 10:30:35;;;;;;;24.92;12.32;;;9.30;99.90;;;;;;5109437;28;20039;-81
2023/12/18 10:33:05;;;;;;;22.77;12.25;;;9.30;99.90;;;;;;5108472;28;20031;-81
2023/12/18 10:35:33;;;;;;;23.00;12.27;;;9.30;99.90;;;;;;5108621;28;20035;-81
2023/12/18 10:38:01;;;;;;;25.08;12.70;;;9.20;99.90;;;;;;5075592;28;20146;-81
2023/12/18 10:40:28;;;;;;;24.40;12.13;;;9.30;99.90;;;;;;5106890;28;20096;-79
2023/12/18 10:43:18;;;;;;;25.05;12.40;;;9.20;99.90;;;;;;5086318;28;20380;-82
2023/12/18 10:45:47;;;;;;;31.40;13.50;;;9.20;99.90;;;;;;5106682;28;20051;-79
2023/12/18 10:48:16;;;;;;;26.33;13.23;;;9.20;99.90;;;;;;5107151;28;20039;-79
2023/12/18 10:50:42;;;;;;;26.00;12.30;;;9.10;99.90;;;;;;5107667;28;20035;-80
2023/12/18 10:53:11;;;;;;;28.13;13.73;;;9.10;99.90;;;;;;5092583;28;20042;-79
2023/12/18 10:55:38;;;;;;;28.38;13.05;;;9.10;99.90;;;;;;5092137;28;20044;-79
2023/12/18 10:58:05;;;;;;;24.98;12.70;;;9.10;99.90;;;;;;5092008;28;20050;-79
2023/12/18 11:00:32;;;;;;;25.15;12.35;;;9.10;99.90;;;;;;5110629;28;20047;-79
2023/12/18 11:02:59;;;;;;;22.25;12.32;;;9.10;99.90;;;;;;5108286;28;20040;-80
2023/12/18 11:05:25;;;;;;;24.70;12.90;;;9.10;99.90;;;;;;5109272;28;20042;-79
2023/12/18 11:07:52;;;;;;;26.40;12.45;;;9.10;99.90;;;;;;5092329;28;20036;-79
2023/12/18 11:10:19;;;;;;;31.20;12.77;;;9.10;99.90;;;;;;5109181;28;20074;-80
2023/12/18 11:12:45;;;;;;;;;;;9.10;99.90;;;;;;5091124;28;20035;-80
2023/12/18 11:15:37;;;;;;;28.25;12.82;;;9.10;99.90;;;;;;5109431;28;19920;-80
2023/12/18 11:18:21;;;;;;;30.83;14.30;;;9.20;99.90;;;;;;5079895;28;20047;-80
2023/12/18 11:20:48;;;;;;;20.60;11.77;;;9.20;99.90;;;;;;5085607;28;20047;-80
2023/12/18 11:23:16;;;;;;;27.00;12.68;;;9.20;99.90;;;;;;5092100;28;20047;-80
2023/12/18 11:25:47;;;;;;;26.10;12.70;;;9.30;99.90;;;;;;5109327;28;20055;-80
2023/12/18 11:28:13;;;;;;;30.90;12.93;;;9.30;99.90;;;;;;5107297;28;20035;-80
2023/12/18 11:30:43;;;;;;;23.02;11.38;;;9.30;99.90;;;;;;5091163;28;20034;-80
2023/12/18 11:33:14;;;;;;;24.63;12.77;;;9.30;99.90;;;;;;5108637;28;20040;-80
2023/12/18 11:35:49;;;;;;;23.50;12.27;;;9.30;99.90;;;;;;5108826;28;20031;-80
2023/12/18 11:38:18;;;;;;;32.78;13.85;;;9.30;99.90;;;;;;5094500;28;20131;-80
2023/12/18 11:40:55;;;;;;;30.60;12.90;;;9.30;99.90;;;;;;5112869;28;20131;-80
2023/12/18 11:43:35;;;;;;;29.60;13.15;;;9.30;99.90;;;;;;5111768;28;20456;-80
2023/12/18 11:46:02;;;;;;;23.90;11.70;;;9.30;99.90;;;;;;5107104;28;20044;-80
2023/12/18 11:48:28;;;;;;;24.58;12.07;;;9.30;99.90;;;;;;5111735;28;20089;-80
2023/12/18 11:50:53;;;;;;;26.73;12.07;;;9.30;99.90;;;;;;5110644;28;20047;-80
2023/12/18 11:53:22;;;;;;;26.13;13.00;;;9.30;99.90;;;;;;5114019;28;20086;-81
2023/12/18 11:55:50;;;;;;;27.08;12.15;;;9.30;99.90;;;;;;5095884;28;20155;-80
2023/12/18 11:58:19;;;;;;;22.45;11.55;;;9.30;99.90;;;;;;5112675;28;20047;-80
2023/12/18 12:00:45;;;;;;;24.15;12.48;;;9.40;99.90;;;;;;5112860;28;20470;-80
2023/12/18 12:03:12;;;;;;;;;;;9.40;99.90;;;;;;5095186;28;20043;-80
2023/12/18 12:05:39;;;;;;;28.35;12.07;;;9.40;99.90;;;;;;5111400;28;19919;-81
2023/12/18 12:08:08;;;;;;;29.73;12.77;;;9.40;99.90;;;;;;5110384;28;20040;-80
2023/12/18 12:10:49;;;;;;;27.90;12.13;;;9.40;99.90;;;;;;5111574;28;20402;-81
2023/12/18 12:13:24;;;;;;;26.30;10.77;;;9.50;99.90;;;;;;5111641;28;20052;-80
2023/12/18 12:15:58;;;;;;;22.48;11.02;;;9.50;99.90;;;;;;5102655;28;20035;-80
2023/12/18 12:18:25;;;;;;;20.92;10.98;;;9.50;99.90;;;;;;5078785;28;20035;-80
2023/12/18 12:20:51;;;;;;;19.75;9.65;;;9.50;99.90;;;;;;5075978;28;20491;-80
2023/12/18 12:23:17;;;;;;;20.25;10.50;;;9.60;99.90;;;;;;5092435;28;20089;-81
2023/12/18 12:25:44;;;;;;;27.35;10.98;;;9.60;99.90;;;;;;5109072;28;20142;-81
2023/12/18 12:28:09;;;;;;;;;;;9.60;99.90;;;;;;5094972;28;20035;-81
2023/12/18 12:30:35;;;;;;;22.20;10.77;;;9.70;99.90;;;;;;5111809;28;19915;-80
2023/12/18 12:33:04;;;;;;;20.65;10.73;;;9.60;99.90;;;;;;5112152;28;20067;-80
2023/12/18 12:35:33;;;;;;;24.70;10.95;;;9.60;99.90;;;;;;5110970;28;20040;-81
2023/12/18 12:38:01;;;;;;;17.50;10.15;;;9.70;99.90;;;;;;5110924;28;20040;-79
2023/12/18 12:40:45;;;;;;;17.48;9.35;;;9.70;99.90;;;;;;5094322;28;20050;-81
2023/12/18 12:43:13;;;;;;;22.55;10.20;;;9.70;99.90;;;;;;5111472;28;20063;-80
2023/12/18 12:45:39;;;;;;;21.55;10.15;;;9.70;99.90;;;;;;5107660;28;20826;-81